sensor_id;sensor_type;location;lat;lon;timestamp;noise_LAeq;noise_LA_min;noise_LA_max;noise_LA01;noise_LA95
65079;Laerm;52655;52.218;5.964;2023-07-22T00:00:42;30.2;29.0;32.0;;
65079;Laerm;52655;52.218;5.964;2023-07-22T00:03:43;34.3;29.3;53.7;;
65079;Laerm;52655;52.218;5.964;2023-07-22T00:06:44;38.6;30.2;53.9;;
65079;Laerm;52655;52.218;5.964;2023-07-22T00:09:45;35.2;29.6;51.2;;
65079;Laerm;52655;52.218;5.964;2023-07-22T00:12:46;33.9;30.0;48.4;;
65079;Laerm;52655;52.218;5.964;2023-07-22T00:15:47;31.9;29.8;36.0;;
65079;Laerm;52655;52.218;5.964;2023-07-22T00:18:49;39.9;30.2;54.4;;
65079;Laerm;52655;52.218;5.964;2023-07-22T00:21:50;37.3;29.8;53.9;;
65079;Laerm;52655;52.218;5.964;2023-07-22T00:24:51;31.2;29.8;34.7;;
65079;Laerm;52655;52.218;5.964;2023-07-22T00:27:52;39.6;30.0;56.3;;
65079;Laerm;52655;52.218;5.964;2023-07-22T00:30:53;32.3;30.3;38.6;;
65079;Laerm;52655;52.218;5.964;2023-07-22T00:33:54;32.2;30.0;40.2;;
65079;Laerm;52655;52.218;5.964;2023-07-22T00:36:55;32.3;29.5;37.0;;
65079;Laerm;52655;52.218;5.964;2023-07-22T00:39:56;36.5;29.4;51.3;;
65079;Laerm;52655;52.218;5.964;2023-07-22T00:42:57;37.6;29.7;52.4;;
65079;Laerm;52655;52.218;5.964;2023-07-22T00:45:58;31.8;29.6;35.5;;
65079;Laerm;52655;52.218;5.964;2023-07-22T00:48:59;31.6;29.8;35.0;;
65079;Laerm;52655;52.218;5.964;2023-07-22T00:52:00;31.8;29.6;38.2;;
65079;Laerm;52655;52.218;5.964;2023-07-22T00:55:01;41.9;29.4;62.0;;
65079;Laerm;52655;52.218;5.964;2023-07-22T00:58:02;38.1;29.6;53.6;;
65079;Laerm;52655;52.218;5.964;2023-07-22T01:01:03;33.3;31.4;37.0;;
65079;Laerm;52655;52.218;5.964;2023-07-22T01:04:04;33.6;30.8;37.5;;
65079;Laerm;52655;52.218;5.964;2023-07-22T01:07:05;36.8;31.3;53.4;;
65079;Laerm;52655;52.218;5.964;2023-07-22T01:10:07;35.3;31.8;44.8;;
65079;Laerm;52655;52.218;5.964;2023-07-22T01:13:07;34.6;31.8;40.5;;
65079;Laerm;52655;52.218;5.964;2023-07-22T01:16:08;34.2;32.1;37.6;;
65079;Laerm;52655;52.218;5.964;2023-07-22T01:19:09;33.9;31.1;37.8;;
65079;Laerm;52655;52.218;5.964;2023-07-22T01:22:11;39.2;30.7;52.5;;
65079;Laerm;52655;52.218;5.964;2023-07-22T01:25:12;36.7;31.5;54.1;;
65079;Laerm;52655;52.218;5.964;2023-07-22T01:28:13;34.1;31.8;40.7;;
65079;Laerm;52655;52.218;5.964;2023-07-22T01:31:14;33.2;30.8;36.9;;
65079;Laerm;52655;52.218;5.964;2023-07-22T01:34:15;33.5;31.4;37.3;;
65079;Laerm;52655;52.218;5.964;2023-07-22T01:37:16;35.5;30.8;50.8;;
65079;Laerm;52655;52.218;5.964;2023-07-22T01:40:17;30.8;29.0;35.5;;
65079;Laerm;52655;52.218;5.964;2023-07-22T01:43:18;33.1;29.2;49.6;;
65079;Laerm;52655;52.218;5.964;2023-07-22T01:46:19;30.7;29.6;34.6;;
65079;Laerm;52655;52.218;5.964;2023-07-22T01:52:21;30.1;28.7;34.5;;
65079;Laerm;52655;52.218;5.964;2023-07-22T01:55:22;30.4;28.8;35.8;;
65079;Laerm;52655;52.218;5.964;2023-07-22T01:58:23;30.9;29.3;39.7;;
65079;Laerm;52655;52.218;5.964;2023-07-22T02:01:24;34.4;29.4;50.4;;
65079;Laerm;52655;52.218;5.964;2023-07-22T02:04:25;33.4;29.1;57.5;;
65079;Laerm;52655;52.218;5.964;2023-07-22T02:07:26;35.8;29.0;53.8;;
65079;Laerm;52655;52.218;5.964;2023-07-22T02:10:27;30.4;29.2;33.6;;
65079;Laerm;52655;52.218;5.964;2023-07-22T02:13:28;32.6;29.4;46.7;;
65079;Laerm;52655;52.218;5.964;2023-07-22T02:16:29;32.6;28.8;50.2;;
65079;Laerm;52655;52.218;5.964;2023-07-22T02:19:30;36.9;29.3;50.3;;
65079;Laerm;52655;52.218;5.964;2023-07-22T02:22:31;39.1;28.9;58.1;;
65079;Laerm;52655;52.218;5.964;2023-07-22T02:25:33;29.9;28.8;34.9;;
65079;Laerm;52655;52.218;5.964;2023-07-22T02:28:34;37.2;29.3;52.4;;
65079;Laerm;52655;52.218;5.964;2023-07-22T02:31:35;31.9;29.0;48.6;;
65079;Laerm;52655;52.218;5.964;2023-07-22T02:34:36;29.5;28.3;35.9;;
65079;Laerm;52655;52.218;5.964;2023-07-22T02:37:37;30.9;28.6;52.3;;
65079;Laerm;52655;52.218;5.964;2023-07-22T02:43:39;30.6;28.6;36.7;;
65079;Laerm;52655;52.218;5.964;2023-07-22T02:46:40;30.7;28.2;42.8;;
65079;Laerm;52655;52.218;5.964;2023-07-22T02:49:41;29.3;28.2;39.0;;
65079;Laerm;52655;52.218;5.964;2023-07-22T02:52:42;31.6;28.3;56.0;;
65079;Laerm;52655;52.218;5.964;2023-07-22T02:55:43;29.6;28.6;35.6;;
65079;Laerm;52655;52.218;5.964;2023-07-22T02:58:44;33.1;28.4;49.0;;
65079;Laerm;52655;52.218;5.964;2023-07-22T03:01:45;31.5;28.8;39.3;;
65079;Laerm;52655;52.218;5.964;2023-07-22T03:04:46;29.1;28.1;30.7;;
65079;Laerm;52655;52.218;5.964;2023-07-22T03:07:47;29.4;28.1;33.4;;
65079;Laerm;52655;52.218;5.964;2023-07-22T03:10:48;35.2;28.6;53.4;;
65079;Laerm;52655;52.218;5.964;2023-07-22T03:13:49;29.5;28.4;44.4;;
65079;Laerm;52655;52.218;5.964;2023-07-22T03:16:50;34.4;28.6;49.4;;
65079;Laerm;52655;52.218;5.964;2023-07-22T03:19:51;30.0;29.0;32.6;;
65079;Laerm;52655;52.218;5.964;2023-07-22T03:22:52;30.7;29.1;35.3;;
65079;Laerm;52655;52.218;5.964;2023-07-22T03:25:53;35.5;28.9;51.4;;
65079;Laerm;52655;52.218;5.964;2023-07-22T03:28:54;30.6;28.5;39.2;;
65079;Laerm;52655;52.218;5.964;2023-07-22T03:31:55;30.7;29.1;36.7;;
65079;Laerm;52655;52.218;5.964;2023-07-22T03:34:57;30.9;29.1;36.5;;
65079;Laerm;52655;52.218;5.964;2023-07-22T03:37:58;32.0;28.9;36.9;;
65079;Laerm;52655;52.218;5.964;2023-07-22T03:40:59;34.7;28.8;49.2;;
65079;Laerm;52655;52.218;5.964;2023-07-22T03:44:00;34.0;29.9;47.4;;
65079;Laerm;52655;52.218;5.964;2023-07-22T03:47:01;34.0;29.0;46.3;;
65079;Laerm;52655;52.218;5.964;2023-07-22T03:50:02;40.5;29.4;56.7;;
65079;Laerm;52655;52.218;5.964;2023-07-22T03:53:03;39.5;29.2;55.6;;
65079;Laerm;52655;52.218;5.964;2023-07-22T03:56:04;40.5;28.9;56.7;;
65079;Laerm;52655;52.218;5.964;2023-07-22T03:59:05;36.0;29.6;53.4;;
65079;Laerm;52655;52.218;5.964;2023-07-22T04:02:06;33.0;29.8;42.2;;
65079;Laerm;52655;52.218;5.964;2023-07-22T04:05:07;33.9;29.5;41.0;;
65079;Laerm;52655;52.218;5.964;2023-07-22T04:11:09;31.5;29.1;43.5;;
65079;Laerm;52655;52.218;5.964;2023-07-22T04:14:10;37.3;29.5;53.0;;
65079;Laerm;52655;52.218;5.964;2023-07-22T04:17:11;37.8;29.7;52.8;;
65079;Laerm;52655;52.218;5.964;2023-07-22T04:20:12;35.5;29.0;51.6;;
65079;Laerm;52655;52.218;5.964;2023-07-22T04:23:13;31.0;29.2;38.2;;
65079;Laerm;52655;52.218;5.964;2023-07-22T04:26:14;33.3;29.1;46.3;;
65079;Laerm;52655;52.218;5.964;2023-07-22T04:29:15;35.5;29.3;52.4;;
65079;Laerm;52655;52.218;5.964;2023-07-22T04:32:16;35.4;29.6;50.0;;
65079;Laerm;52655;52.218;5.964;2023-07-22T04:35:18;36.5;29.5;53.3;;
65079;Laerm;52655;52.218;5.964;2023-07-22T04:38:19;33.0;29.5;46.6;;
65079;Laerm;52655;52.218;5.964;2023-07-22T04:41:20;36.4;28.9;52.0;;
65079;Laerm;52655;52.218;5.964;2023-07-22T04:44:21;38.7;29.9;52.6;;
65079;Laerm;52655;52.218;5.964;2023-07-22T04:47:22;40.7;30.1;54.7;;
65079;Laerm;52655;52.218;5.964;2023-07-22T04:50:23;39.9;29.7;54.5;;
65079;Laerm;52655;52.218;5.964;2023-07-22T04:53:24;38.6;30.8;52.4;;
65079;Laerm;52655;52.218;5.964;2023-07-22T04:56:25;40.7;29.8;56.2;;
65079;Laerm;52655;52.218;5.964;2023-07-22T04:59:26;33.4;29.6;44.6;;
65079;Laerm;52655;52.218;5.964;2023-07-22T05:02:27;44.7;30.1;59.8;;
65079;Laerm;52655;52.218;5.964;2023-07-22T05:05:28;34.8;29.4;49.0;;
65079;Laerm;52655;52.218;5.964;2023-07-22T05:08:29;34.1;29.8;41.8;;
65079;Laerm;52655;52.218;5.964;2023-07-22T05:11:30;35.5;30.2;50.4;;
65079;Laerm;52655;52.218;5.964;2023-07-22T05:14:31;39.6;31.5;54.5;;
65079;Laerm;52655;52.218;5.964;2023-07-22T05:17:32;39.1;30.8;52.5;;
65079;Laerm;52655;52.218;5.964;2023-07-22T05:20:33;37.1;30.1;52.9;;
65079;Laerm;52655;52.218;5.964;2023-07-22T05:23:34;38.3;31.4;51.4;;
65079;Laerm;52655;52.218;5.964;2023-07-22T05:26:35;37.3;30.4;54.8;;
65079;Laerm;52655;52.218;5.964;2023-07-22T05:29:36;39.5;31.3;49.2;;
65079;Laerm;52655;52.218;5.964;2023-07-22T05:32:37;36.2;31.8;47.2;;
65079;Laerm;52655;52.218;5.964;2023-07-22T05:35:38;40.0;30.5;53.4;;
65079;Laerm;52655;52.218;5.964;2023-07-22T05:38:39;41.6;30.6;57.2;;
65079;Laerm;52655;52.218;5.964;2023-07-22T05:41:40;36.8;31.0;52.4;;
65079;Laerm;52655;52.218;5.964;2023-07-22T05:44:42;41.1;31.8;55.3;;
65079;Laerm;52655;52.218;5.964;2023-07-22T05:47:43;43.9;33.6;56.0;;
65079;Laerm;52655;52.218;5.964;2023-07-22T05:50:44;46.6;35.7;57.4;;
65079;Laerm;52655;52.218;5.964;2023-07-22T05:53:45;40.4;32.1;52.5;;
65079;Laerm;52655;52.218;5.964;2023-07-22T05:56:46;40.9;32.1;61.0;;
65079;Laerm;52655;52.218;5.964;2023-07-22T05:59:47;38.4;30.8;54.8;;
65079;Laerm;52655;52.218;5.964;2023-07-22T06:04:43;39.9;31.8;51.4;;
65079;Laerm;52655;52.218;5.964;2023-07-22T06:07:44;42.6;31.6;54.5;;
65079;Laerm;52655;52.218;5.964;2023-07-22T06:10:45;40.9;32.0;53.4;;
65079;Laerm;52655;52.218;5.964;2023-07-22T06:13:46;37.3;31.1;51.7;;
65079;Laerm;52655;52.218;5.964;2023-07-22T06:16:47;37.7;31.3;52.5;;
65079;Laerm;52655;52.218;5.964;2023-07-22T06:22:50;40.0;30.7;52.9;;
65079;Laerm;52655;52.218;5.964;2023-07-22T06:25:51;40.0;31.4;52.3;;
65079;Laerm;52655;52.218;5.964;2023-07-22T06:28:52;42.3;30.8;54.8;;
65079;Laerm;52655;52.218;5.964;2023-07-22T06:31:53;41.9;32.0;58.1;;
65079;Laerm;52655;52.218;5.964;2023-07-22T06:34:54;42.8;32.6;58.5;;
65079;Laerm;52655;52.218;5.964;2023-07-22T06:37:55;44.0;32.8;60.5;;
65079;Laerm;52655;52.218;5.964;2023-07-22T06:40:56;40.9;33.4;52.8;;
65079;Laerm;52655;52.218;5.964;2023-07-22T06:43:57;43.0;34.3;54.6;;
65079;Laerm;52655;52.218;5.964;2023-07-22T06:46:58;38.9;33.0;50.2;;
65079;Laerm;52655;52.218;5.964;2023-07-22T06:49:59;41.8;32.3;62.0;;
65079;Laerm;52655;52.218;5.964;2023-07-22T06:53:00;42.7;33.1;56.6;;
65079;Laerm;52655;52.218;5.964;2023-07-22T06:56:01;41.0;32.1;53.5;;
65079;Laerm;52655;52.218;5.964;2023-07-22T06:59:02;39.7;32.8;50.7;;
65079;Laerm;52655;52.218;5.964;2023-07-22T07:02:03;44.5;33.5;57.7;;
65079;Laerm;52655;52.218;5.964;2023-07-22T07:05:05;42.7;33.1;57.7;;
65079;Laerm;52655;52.218;5.964;2023-07-22T07:08:05;42.2;33.6;58.8;;
65079;Laerm;52655;52.218;5.964;2023-07-22T07:11:06;40.7;33.4;56.5;;
65079;Laerm;52655;52.218;5.964;2023-07-22T07:14:07;51.6;36.7;62.9;;
65079;Laerm;52655;52.218;5.964;2023-07-22T07:17:08;43.5;35.7;54.1;;
65079;Laerm;52655;52.218;5.964;2023-07-22T07:20:10;40.2;32.9;52.5;;
65079;Laerm;52655;52.218;5.964;2023-07-22T07:23:11;42.9;34.8;53.7;;
65079;Laerm;52655;52.218;5.964;2023-07-22T07:26:11;40.5;33.6;52.0;;
65079;Laerm;52655;52.218;5.964;2023-07-22T07:29:13;41.3;33.9;53.1;;
65079;Laerm;52655;52.218;5.964;2023-07-22T07:32:14;42.3;35.7;51.3;;
65079;Laerm;52655;52.218;5.964;2023-07-22T07:35:15;49.7;34.4;58.0;;
65079;Laerm;52655;52.218;5.964;2023-07-22T07:38:16;42.8;33.2;55.1;;
65079;Laerm;52655;52.218;5.964;2023-07-22T07:41:17;44.0;35.1;54.6;;
65079;Laerm;52655;52.218;5.964;2023-07-22T07:44:18;42.5;35.2;55.2;;
65079;Laerm;52655;52.218;5.964;2023-07-22T07:47:19;42.5;35.3;57.8;;
65079;Laerm;52655;52.218;5.964;2023-07-22T07:50:20;44.2;37.6;53.2;;
65079;Laerm;52655;52.218;5.964;2023-07-22T07:53:21;46.2;40.2;56.2;;
65079;Laerm;52655;52.218;5.964;2023-07-22T07:56:22;42.5;36.0;56.3;;
65079;Laerm;52655;52.218;5.964;2023-07-22T07:59:23;43.4;37.6;54.3;;
65079;Laerm;52655;52.218;5.964;2023-07-22T08:02:24;53.8;37.0;63.2;;
65079;Laerm;52655;52.218;5.964;2023-07-22T08:08:26;50.0;38.3;62.4;;
65079;Laerm;52655;52.218;5.964;2023-07-22T08:11:27;43.7;37.0;54.8;;
65079;Laerm;52655;52.218;5.964;2023-07-22T08:14:28;50.4;38.7;65.9;;
65079;Laerm;52655;52.218;5.964;2023-07-22T08:17:29;44.0;37.0;53.3;;
65079;Laerm;52655;52.218;5.964;2023-07-22T08:20:30;43.3;36.5;54.9;;
65079;Laerm;52655;52.218;5.964;2023-07-22T08:23:31;42.6;35.6;54.8;;
65079;Laerm;52655;52.218;5.964;2023-07-22T08:26:32;44.8;37.3;59.5;;
65079;Laerm;52655;52.218;5.964;2023-07-22T08:29:34;45.6;37.4;54.4;;
65079;Laerm;52655;52.218;5.964;2023-07-22T08:32:34;45.6;37.5;53.8;;
65079;Laerm;52655;52.218;5.964;2023-07-22T08:35:36;43.5;36.7;55.9;;
65079;Laerm;52655;52.218;5.964;2023-07-22T08:38:37;41.2;35.2;53.2;;
65079;Laerm;52655;52.218;5.964;2023-07-22T08:41:38;43.3;36.1;55.7;;
65079;Laerm;52655;52.218;5.964;2023-07-22T08:44:39;42.4;34.3;52.7;;
65079;Laerm;52655;52.218;5.964;2023-07-22T08:47:46;40.7;34.5;52.5;;
65079;Laerm;52655;52.218;5.964;2023-07-22T08:50:41;45.5;37.2;56.2;;
65079;Laerm;52655;52.218;5.964;2023-07-22T08:53:42;44.7;36.1;55.5;;
65079;Laerm;52655;52.218;5.964;2023-07-22T08:59:44;43.2;35.2;54.9;;
65079;Laerm;52655;52.218;5.964;2023-07-22T09:05:46;49.2;39.8;63.0;;
65079;Laerm;52655;52.218;5.964;2023-07-22T09:13:44;45.2;38.6;55.7;;
65079;Laerm;52655;52.218;5.964;2023-07-22T09:16:45;46.5;38.4;54.7;;
65079;Laerm;52655;52.218;5.964;2023-07-22T09:22:48;57.2;41.4;74.2;;
65079;Laerm;52655;52.218;5.964;2023-07-22T09:28:49;44.0;37.0;58.3;;
65079;Laerm;52655;52.218;5.964;2023-07-22T09:34:55;44.0;37.5;53.0;;
65079;Laerm;52655;52.218;5.964;2023-07-22T09:40:53;46.1;39.3;55.9;;
65079;Laerm;52655;52.218;5.964;2023-07-22T09:46:55;42.4;36.5;54.0;;
65079;Laerm;52655;52.218;5.964;2023-07-22T09:52:58;43.8;36.0;58.8;;
65079;Laerm;52655;52.218;5.964;2023-07-22T09:58:59;45.0;37.3;66.0;;
65079;Laerm;52655;52.218;5.964;2023-07-22T10:03:56;42.9;34.8;58.2;;
65079;Laerm;52655;52.218;5.964;2023-07-22T10:06:57;44.2;35.6;55.6;;
65079;Laerm;52655;52.218;5.964;2023-07-22T10:09:58;49.6;41.8;60.4;;
65079;Laerm;52655;52.218;5.964;2023-07-22T10:12:59;46.8;35.8;56.6;;
65079;Laerm;52655;52.218;5.964;2023-07-22T10:16:00;43.8;36.2;57.6;;
65079;Laerm;52655;52.218;5.964;2023-07-22T10:19:01;44.9;38.6;56.0;;
65079;Laerm;52655;52.218;5.964;2023-07-22T10:22:02;42.3;34.7;51.9;;
65079;Laerm;52655;52.218;5.964;2023-07-22T10:25:04;45.7;38.7;51.8;;
65079;Laerm;52655;52.218;5.964;2023-07-22T10:28:04;40.8;35.3;52.4;;
65079;Laerm;52655;52.218;5.964;2023-07-22T10:31:05;43.7;36.1;52.6;;
65079;Laerm;52655;52.218;5.964;2023-07-22T10:34:06;44.4;36.8;53.9;;
65079;Laerm;52655;52.218;5.964;2023-07-22T10:37:08;44.0;35.7;54.0;;
65079;Laerm;52655;52.218;5.964;2023-07-22T10:40:17;45.1;37.6;64.3;;
65079;Laerm;52655;52.218;5.964;2023-07-22T10:43:09;47.1;36.2;63.8;;
65079;Laerm;52655;52.218;5.964;2023-07-22T10:46:11;45.5;35.7;54.7;;
65079;Laerm;52655;52.218;5.964;2023-07-22T10:49:12;51.0;38.4;66.8;;
65079;Laerm;52655;52.218;5.964;2023-07-22T10:52:13;45.5;38.4;58.3;;
65079;Laerm;52655;52.218;5.964;2023-07-22T10:55:14;44.7;36.4;55.5;;
65079;Laerm;52655;52.218;5.964;2023-07-22T10:58:15;49.4;43.2;57.1;;
65079;Laerm;52655;52.218;5.964;2023-07-22T11:01:23;46.6;40.5;57.9;;
65079;Laerm;52655;52.218;5.964;2023-07-22T11:04:21;44.7;39.5;55.1;;
65079;Laerm;52655;52.218;5.964;2023-07-22T11:07:29;45.2;40.0;55.6;;
65079;Laerm;52655;52.218;5.964;2023-07-22T11:10:19;44.4;37.5;55.5;;
65079;Laerm;52655;52.218;5.964;2023-07-22T11:16:21;48.0;39.2;61.0;;
65079;Laerm;52655;52.218;5.964;2023-07-22T11:19:23;45.9;39.8;56.2;;
65079;Laerm;52655;52.218;5.964;2023-07-22T11:22:23;45.7;38.2;56.9;;
65079;Laerm;52655;52.218;5.964;2023-07-22T11:25:25;45.6;39.9;56.2;;
65079;Laerm;52655;52.218;5.964;2023-07-22T11:28:25;43.1;36.1;52.9;;
65079;Laerm;52655;52.218;5.964;2023-07-22T11:31:30;42.2;36.2;55.3;;
65079;Laerm;52655;52.218;5.964;2023-07-22T11:34:27;44.3;37.4;52.8;;
65079;Laerm;52655;52.218;5.964;2023-07-22T11:40:32;52.4;42.1;60.8;;
65079;Laerm;52655;52.218;5.964;2023-07-22T11:43:31;54.4;43.6;59.6;;
65079;Laerm;52655;52.218;5.964;2023-07-22T11:46:31;46.2;39.1;55.2;;
65079;Laerm;52655;52.218;5.964;2023-07-22T11:49:33;45.2;36.9;53.2;;
65079;Laerm;52655;52.218;5.964;2023-07-22T11:52:34;46.2;36.6;57.7;;
65079;Laerm;52655;52.218;5.964;2023-07-22T11:55:35;44.2;36.0;52.9;;
65079;Laerm;52655;52.218;5.964;2023-07-22T11:58:36;43.8;36.2;52.8;;
65079;Laerm;52655;52.218;5.964;2023-07-22T12:01:37;45.9;37.1;56.6;;
65079;Laerm;52655;52.218;5.964;2023-07-22T12:04:38;43.7;35.4;53.4;;
65079;Laerm;52655;52.218;5.964;2023-07-22T12:07:39;44.0;36.1;53.4;;
65079;Laerm;52655;52.218;5.964;2023-07-22T12:10:40;44.0;34.5;55.3;;
65079;Laerm;52655;52.218;5.964;2023-07-22T12:13:41;44.0;35.6;59.1;;
65079;Laerm;52655;52.218;5.964;2023-07-22T12:16:42;43.7;35.1;52.3;;
65079;Laerm;52655;52.218;5.964;2023-07-22T12:19:50;41.2;34.2;50.7;;
65079;Laerm;52655;52.218;5.964;2023-07-22T12:22:44;43.7;36.2;55.6;;
65079;Laerm;52655;52.218;5.964;2023-07-22T12:25:45;53.2;39.2;78.0;;
65079;Laerm;52655;52.218;5.964;2023-07-22T12:28:46;48.4;38.3;59.3;;
65079;Laerm;52655;52.218;5.964;2023-07-22T12:31:47;48.1;35.2;62.1;;
65079;Laerm;52655;52.218;5.964;2023-07-22T12:34:48;52.2;40.7;62.7;;
65079;Laerm;52655;52.218;5.964;2023-07-22T12:37:49;52.3;43.4;60.4;;
65079;Laerm;52655;52.218;5.964;2023-07-22T12:40:50;52.7;38.0;66.2;;
65079;Laerm;52655;52.218;5.964;2023-07-22T12:43:51;45.5;36.8;60.3;;
65079;Laerm;52655;52.218;5.964;2023-07-22T12:46:52;47.4;37.9;55.7;;
65079;Laerm;52655;52.218;5.964;2023-07-22T12:49:53;44.7;38.0;52.1;;
65079;Laerm;52655;52.218;5.964;2023-07-22T12:52:54;43.5;35.9;53.9;;
65079;Laerm;52655;52.218;5.964;2023-07-22T12:55:55;44.6;37.3;55.3;;
65079;Laerm;52655;52.218;5.964;2023-07-22T12:58:56;45.9;39.3;53.9;;
65079;Laerm;52655;52.218;5.964;2023-07-22T13:01:58;55.8;49.9;69.6;;
65079;Laerm;52655;52.218;5.964;2023-07-22T13:04:59;49.9;40.3;59.2;;
65079;Laerm;52655;52.218;5.964;2023-07-22T13:08:00;46.4;38.5;60.4;;
65079;Laerm;52655;52.218;5.964;2023-07-22T13:11:01;49.4;40.9;59.5;;
65079;Laerm;52655;52.218;5.964;2023-07-22T13:14:02;47.1;39.3;57.4;;
65079;Laerm;52655;52.218;5.964;2023-07-22T13:17:03;44.7;35.7;54.9;;
65079;Laerm;52655;52.218;5.964;2023-07-22T13:23:05;51.5;37.9;63.5;;
65079;Laerm;52655;52.218;5.964;2023-07-22T13:26:06;45.6;33.7;65.9;;
65079;Laerm;52655;52.218;5.964;2023-07-22T13:29:07;45.0;34.4;60.0;;
65079;Laerm;52655;52.218;5.964;2023-07-22T13:32:08;46.6;37.0;57.6;;
65079;Laerm;52655;52.218;5.964;2023-07-22T13:35:09;45.8;35.9;53.7;;
65079;Laerm;52655;52.218;5.964;2023-07-22T13:38:10;44.6;33.8;58.9;;
65079;Laerm;52655;52.218;5.964;2023-07-22T13:41:11;44.7;36.7;53.9;;
65079;Laerm;52655;52.218;5.964;2023-07-22T13:44:12;45.0;34.3;55.2;;
65079;Laerm;52655;52.218;5.964;2023-07-22T13:47:13;46.2;35.2;54.1;;
65079;Laerm;52655;52.218;5.964;2023-07-22T13:53:15;40.7;33.3;54.1;;
65079;Laerm;52655;52.218;5.964;2023-07-22T13:56:16;50.5;35.9;59.1;;
65079;Laerm;52655;52.218;5.964;2023-07-22T13:59:17;43.6;34.7;56.6;;
65079;Laerm;52655;52.218;5.964;2023-07-22T14:02:18;51.1;35.2;59.6;;
65079;Laerm;52655;52.218;5.964;2023-07-22T14:05:20;48.0;38.7;57.1;;
65079;Laerm;52655;52.218;5.964;2023-07-22T14:08:21;43.5;34.2;55.5;;
65079;Laerm;52655;52.218;5.964;2023-07-22T14:11:22;41.9;33.5;53.2;;
65079;Laerm;52655;52.218;5.964;2023-07-22T14:14:23;44.2;35.8;53.9;;
65079;Laerm;52655;52.218;5.964;2023-07-22T14:17:24;47.7;34.6;76.0;;
65079;Laerm;52655;52.218;5.964;2023-07-22T14:20:25;60.1;35.6;73.4;;
65079;Laerm;52655;52.218;5.964;2023-07-22T14:23:26;45.0;35.9;56.2;;
65079;Laerm;52655;52.218;5.964;2023-07-22T14:26:27;44.3;36.1;57.7;;
65079;Laerm;52655;52.218;5.964;2023-07-22T14:29:28;54.1;34.7;71.5;;
65079;Laerm;52655;52.218;5.964;2023-07-22T14:32:29;44.4;34.2;54.6;;
65079;Laerm;52655;52.218;5.964;2023-07-22T14:35:30;52.4;35.6;74.4;;
65079;Laerm;52655;52.218;5.964;2023-07-22T14:38:31;45.5;33.7;53.6;;
65079;Laerm;52655;52.218;5.964;2023-07-22T14:44:33;42.6;34.5;54.7;;
65079;Laerm;52655;52.218;5.964;2023-07-22T14:47:34;53.4;34.0;79.4;;
65079;Laerm;52655;52.218;5.964;2023-07-22T14:50:35;43.7;34.5;54.6;;
65079;Laerm;52655;52.218;5.964;2023-07-22T14:53:36;42.3;32.8;58.0;;
65079;Laerm;52655;52.218;5.964;2023-07-22T14:56:37;48.3;37.9;61.5;;
65079;Laerm;52655;52.218;5.964;2023-07-22T14:59:38;41.6;32.6;51.2;;
65079;Laerm;52655;52.218;5.964;2023-07-22T15:02:39;41.4;33.9;51.1;;
65079;Laerm;52655;52.218;5.964;2023-07-22T15:05:40;43.7;34.2;51.8;;
65079;Laerm;52655;52.218;5.964;2023-07-22T15:08:41;44.6;33.6;56.3;;
65079;Laerm;52655;52.218;5.964;2023-07-22T15:11:42;42.6;33.0;51.7;;
65079;Laerm;52655;52.218;5.964;2023-07-22T15:14:44;41.7;33.6;51.7;;
65079;Laerm;52655;52.218;5.964;2023-07-22T15:17:45;48.4;36.1;54.1;;
65079;Laerm;52655;52.218;5.964;2023-07-22T15:20:46;44.5;33.9;56.9;;
65079;Laerm;52655;52.218;5.964;2023-07-22T15:26:48;43.3;34.1;51.3;;
65079;Laerm;52655;52.218;5.964;2023-07-22T15:29:49;42.7;35.3;51.9;;
65079;Laerm;52655;52.218;5.964;2023-07-22T15:32:50;44.1;36.2;53.0;;
65079;Laerm;52655;52.218;5.964;2023-07-22T15:35:51;46.4;33.6;54.4;;
65079;Laerm;52655;52.218;5.964;2023-07-22T15:38:52;45.0;34.5;56.4;;
65079;Laerm;52655;52.218;5.964;2023-07-22T15:41:53;47.9;35.7;57.6;;
65079;Laerm;52655;52.218;5.964;2023-07-22T15:44:54;46.1;32.9;59.6;;
65079;Laerm;52655;52.218;5.964;2023-07-22T15:47:55;42.0;34.2;59.6;;
65079;Laerm;52655;52.218;5.964;2023-07-22T15:50:56;42.2;34.6;51.4;;
65079;Laerm;52655;52.218;5.964;2023-07-22T15:53:57;42.8;33.5;60.4;;
65079;Laerm;52655;52.218;5.964;2023-07-22T15:56:58;45.5;34.5;56.4;;
65079;Laerm;52655;52.218;5.964;2023-07-22T15:59:59;42.5;33.6;55.3;;
65079;Laerm;52655;52.218;5.964;2023-07-22T16:03:00;44.6;35.7;55.0;;
65079;Laerm;52655;52.218;5.964;2023-07-22T16:06:01;45.9;38.4;56.2;;
65079;Laerm;52655;52.218;5.964;2023-07-22T16:09:02;45.6;36.9;58.1;;
65079;Laerm;52655;52.218;5.964;2023-07-22T16:12:03;41.2;33.6;54.6;;
65079;Laerm;52655;52.218;5.964;2023-07-22T16:15:05;43.4;34.1;58.0;;
65079;Laerm;52655;52.218;5.964;2023-07-22T16:18:06;41.4;32.8;52.6;;
65079;Laerm;52655;52.218;5.964;2023-07-22T16:21:07;43.3;32.9;56.0;;
65079;Laerm;52655;52.218;5.964;2023-07-22T16:24:08;38.9;32.6;46.6;;
65079;Laerm;52655;52.218;5.964;2023-07-22T16:27:09;40.9;32.8;52.2;;
65079;Laerm;52655;52.218;5.964;2023-07-22T16:32:05;41.0;32.2;50.9;;
65079;Laerm;52655;52.218;5.964;2023-07-22T16:35:06;40.9;32.8;54.5;;
65079;Laerm;52655;52.218;5.964;2023-07-22T16:38:07;41.9;32.3;54.1;;
65079;Laerm;52655;52.218;5.964;2023-07-22T16:41:08;42.7;32.4;53.2;;
65079;Laerm;52655;52.218;5.964;2023-07-22T16:44:09;40.9;32.2;54.1;;
65079;Laerm;52655;52.218;5.964;2023-07-22T16:47:10;40.9;32.0;55.7;;
65079;Laerm;52655;52.218;5.964;2023-07-22T16:50:11;41.2;32.5;52.1;;
65079;Laerm;52655;52.218;5.964;2023-07-22T16:53:13;41.7;32.7;52.9;;
65079;Laerm;52655;52.218;5.964;2023-07-22T16:56:14;47.6;34.6;58.7;;
65079;Laerm;52655;52.218;5.964;2023-07-22T16:59:15;40.6;32.5;51.6;;
65079;Laerm;52655;52.218;5.964;2023-07-22T17:02:16;41.4;33.1;54.1;;
65079;Laerm;52655;52.218;5.964;2023-07-22T17:05:17;38.8;32.4;49.6;;
65079;Laerm;52655;52.218;5.964;2023-07-22T17:08:18;41.8;32.8;54.1;;
65079;Laerm;52655;52.218;5.964;2023-07-22T17:11:19;40.8;31.3;49.8;;
65079;Laerm;52655;52.218;5.964;2023-07-22T17:14:20;39.8;32.2;52.5;;
65079;Laerm;52655;52.218;5.964;2023-07-22T17:17:21;38.5;32.4;47.6;;
65079;Laerm;52655;52.218;5.964;2023-07-22T17:20:22;38.9;31.6;53.7;;
65079;Laerm;52655;52.218;5.964;2023-07-22T17:23:23;47.7;31.9;58.0;;
65079;Laerm;52655;52.218;5.964;2023-07-22T17:26:24;43.6;32.9;57.4;;
65079;Laerm;52655;52.218;5.964;2023-07-22T17:29:26;42.1;33.1;56.4;;
65079;Laerm;52655;52.218;5.964;2023-07-22T17:32:26;41.8;33.3;52.1;;
65079;Laerm;52655;52.218;5.964;2023-07-22T17:35:27;42.1;33.8;54.2;;
65079;Laerm;52655;52.218;5.964;2023-07-22T17:38:28;41.2;32.7;52.5;;
65079;Laerm;52655;52.218;5.964;2023-07-22T17:41:29;41.6;34.8;53.4;;
65079;Laerm;52655;52.218;5.964;2023-07-22T17:44:30;43.1;35.2;54.0;;
65079;Laerm;52655;52.218;5.964;2023-07-22T17:47:31;46.1;35.1;66.7;;
65079;Laerm;52655;52.218;5.964;2023-07-22T17:50:32;43.2;33.6;58.4;;
65079;Laerm;52655;52.218;5.964;2023-07-22T17:53:33;42.4;34.6;54.7;;
65079;Laerm;52655;52.218;5.964;2023-07-22T17:56:34;44.5;35.1;54.4;;
65079;Laerm;52655;52.218;5.964;2023-07-22T17:59:35;46.4;34.6;57.2;;
65079;Laerm;52655;52.218;5.964;2023-07-22T18:02:37;49.3;33.9;71.2;;
65079;Laerm;52655;52.218;5.964;2023-07-22T18:05:38;42.7;34.3;52.2;;
65079;Laerm;52655;52.218;5.964;2023-07-22T18:08:39;44.9;36.0;59.3;;
65079;Laerm;52655;52.218;5.964;2023-07-22T18:11:40;40.0;32.9;55.6;;
65079;Laerm;52655;52.218;5.964;2023-07-22T18:14:41;41.0;32.1;54.8;;
65079;Laerm;52655;52.218;5.964;2023-07-22T18:17:42;42.4;31.3;58.7;;
65079;Laerm;52655;52.218;5.964;2023-07-22T18:20:43;39.3;31.2;53.7;;
65079;Laerm;52655;52.218;5.964;2023-07-22T18:23:44;38.9;31.4;50.5;;
65079;Laerm;52655;52.218;5.964;2023-07-22T18:26:45;44.9;33.6;53.7;;
65079;Laerm;52655;52.218;5.964;2023-07-22T18:29:46;40.2;33.5;54.1;;
65079;Laerm;52655;52.218;5.964;2023-07-22T18:32:47;39.9;33.2;48.7;;
65079;Laerm;52655;52.218;5.964;2023-07-22T18:35:48;41.4;34.1;50.9;;
65079;Laerm;52655;52.218;5.964;2023-07-22T18:38:49;44.4;39.6;53.5;;
65079;Laerm;52655;52.218;5.964;2023-07-22T18:41:50;48.7;39.8;57.5;;
65079;Laerm;52655;52.218;5.964;2023-07-22T18:44:51;45.2;38.5;53.1;;
65079;Laerm;52655;52.218;5.964;2023-07-22T18:47:52;44.7;35.8;55.0;;